sensor_id;sensor_type;location;lat;lon;timestamp;P1;durP1;ratioP1;P2;durP2;ratioP2
35550;SDS011;21655;46.056;13.616;2023-04-19T00:00:17;6.63;;;2.65;;
35550;SDS011;21655;46.056;13.616;2023-04-19T00:02:44;6.38;;;3.00;;
35550;SDS011;21655;46.056;13.616;2023-04-19T00:05:09;6.70;;;2.65;;
35550;SDS011;21655;46.056;13.616;2023-04-19T00:07:37;5.10;;;3.10;;
35550;SDS011;21655;46.056;13.616;2023-04-19T00:10:03;9.48;;;3.38;;
35550;SDS011;21655;46.056;13.616;2023-04-19T00:12:28;5.63;;;3.03;;
35550;SDS011;21655;46.056;13.616;2023-04-19T00:14:54;7.95;;;3.20;;
35550;SDS011;21655;46.056;13.616;2023-04-19T00:17:19;7.40;;;3.30;;
35550;SDS011;21655;46.056;13.616;2023-04-19T00:19:45;6.25;;;3.03;;
35550;SDS011;21655;46.056;13.616;2023-04-19T00:22:10;6.30;;;3.13;;
35550;SDS011;21655;46.056;13.616;2023-04-19T00:24:36;5.40;;;3.25;;
35550;SDS011;21655;46.056;13.616;2023-04-19T00:27:01;8.40;;;2.75;;
35550;SDS011;21655;46.056;13.616;2023-04-19T00:29:27;4.43;;;2.78;;
35550;SDS011;21655;46.056;13.616;2023-04-19T00:31:53;5.35;;;2.78;;
35550;SDS011;21655;46.056;13.616;2023-04-19T00:34:18;5.03;;;2.67;;
35550;SDS011;21655;46.056;13.616;2023-04-19T00:36:44;5.57;;;2.78;;
35550;SDS011;21655;46.056;13.616;2023-04-19T00:39:09;4.53;;;2.80;;
35550;SDS011;21655;46.056;13.616;2023-04-19T00:41:35;5.20;;;2.95;;
35550;SDS011;21655;46.056;13.616;2023-04-19T00:44:00;6.45;;;2.90;;
35550;SDS011;21655;46.056;13.616;2023-04-19T00:46:26;6.07;;;3.03;;
35550;SDS011;21655;46.056;13.616;2023-04-19T00:48:51;7.35;;;2.92;;
35550;SDS011;21655;46.056;13.616;2023-04-19T00:51:17;5.35;;;2.95;;
35550;SDS011;21655;46.056;13.616;2023-04-19T00:53:44;5.40;;;3.00;;
35550;SDS011;21655;46.056;13.616;2023-04-19T00:56:10;5.10;;;3.08;;
35550;SDS011;21655;46.056;13.616;2023-04-19T00:58:38;6.43;;;2.42;;
35550;SDS011;21655;46.056;13.616;2023-04-19T01:01:03;6.22;;;2.78;;
35550;SDS011;21655;46.056;13.616;2023-04-19T01:03:30;4.40;;;2.88;;
35550;SDS011;21655;46.056;13.616;2023-04-19T01:05:56;6.18;;;2.80;;
35550;SDS011;21655;46.056;13.616;2023-04-19T01:08:22;5.82;;;3.08;;
35550;SDS011;21655;46.056;13.616;2023-04-19T01:10:47;6.78;;;3.00;;
35550;SDS011;21655;46.056;13.616;2023-04-19T01:13:13;4.70;;;2.67;;
35550;SDS011;21655;46.056;13.616;2023-04-19T01:15:38;6.32;;;2.60;;
35550;SDS011;21655;46.056;13.616;2023-04-19T01:18:04;6.35;;;2.90;;
35550;SDS011;21655;46.056;13.616;2023-04-19T01:20:29;11.20;;;3.00;;
35550;SDS011;21655;46.056;13.616;2023-04-19T01:22:55;5.53;;;2.83;;
35550;SDS011;21655;46.056;13.616;2023-04-19T01:25:20;6.22;;;2.85;;
35550;SDS011;21655;46.056;13.616;2023-04-19T01:27:46;6.25;;;2.88;;
35550;SDS011;21655;46.056;13.616;2023-04-19T01:30:11;5.20;;;2.60;;
35550;SDS011;21655;46.056;13.616;2023-04-19T01:32:37;5.22;;;2.65;;
35550;SDS011;21655;46.056;13.616;2023-04-19T01:35:02;6.80;;;3.05;;
35550;SDS011;21655;46.056;13.616;2023-04-19T01:37:28;5.10;;;2.78;;
35550;SDS011;21655;46.056;13.616;2023-04-19T01:39:53;4.03;;;2.50;;
35550;SDS011;21655;46.056;13.616;2023-04-19T01:42:19;5.57;;;2.85;;
35550;SDS011;21655;46.056;13.616;2023-04-19T01:44:44;4.15;;;2.60;;
35550;SDS011;21655;46.056;13.616;2023-04-19T01:47:10;6.80;;;2.70;;
35550;SDS011;21655;46.056;13.616;2023-04-19T01:49:35;5.28;;;2.53;;
35550;SDS011;21655;46.056;13.616;2023-04-19T01:52:01;3.95;;;2.67;;
35550;SDS011;21655;46.056;13.616;2023-04-19T01:54:26;7.90;;;3.28;;
35550;SDS011;21655;46.056;13.616;2023-04-19T01:56:51;5.88;;;2.83;;
35550;SDS011;21655;46.056;13.616;2023-04-19T01:59:17;7.05;;;2.58;;
35550;SDS011;21655;46.056;13.616;2023-04-19T02:01:42;5.07;;;2.58;;
35550;SDS011;21655;46.056;13.616;2023-04-19T02:04:08;5.47;;;2.72;;
35550;SDS011;21655;46.056;13.616;2023-04-19T02:06:33;6.55;;;2.90;;
35550;SDS011;21655;46.056;13.616;2023-04-19T02:08:59;4.03;;;2.75;;
35550;SDS011;21655;46.056;13.616;2023-04-19T02:11:24;7.30;;;3.05;;
35550;SDS011;21655;46.056;13.616;2023-04-19T02:13:50;6.00;;;2.90;;
35550;SDS011;21655;46.056;13.616;2023-04-19T02:16:15;4.72;;;2.63;;
35550;SDS011;21655;46.056;13.616;2023-04-19T02:18:40;6.57;;;2.75;;
35550;SDS011;21655;46.056;13.616;2023-04-19T02:21:07;4.93;;;2.50;;
35550;SDS011;21655;46.056;13.616;2023-04-19T02:23:33;4.30;;;2.50;;
35550;SDS011;21655;46.056;13.616;2023-04-19T02:25:59;6.32;;;2.50;;
35550;SDS011;21655;46.056;13.616;2023-04-19T02:28:31;3.70;;;2.38;;
35550;SDS011;21655;46.056;13.616;2023-04-19T02:30:57;5.68;;;2.78;;
35550;SDS011;21655;46.056;13.616;2023-04-19T02:33:24;5.88;;;2.80;;
35550;SDS011;21655;46.056;13.616;2023-04-19T02:35:51;6.07;;;2.92;;
35550;SDS011;21655;46.056;13.616;2023-04-19T02:38:16;6.88;;;2.72;;
35550;SDS011;21655;46.056;13.616;2023-04-19T02:40:42;5.05;;;2.53;;
35550;SDS011;21655;46.056;13.616;2023-04-19T02:43:07;5.22;;;2.60;;
35550;SDS011;21655;46.056;13.616;2023-04-19T02:45:32;6.45;;;2.67;;
35550;SDS011;21655;46.056;13.616;2023-04-19T02:47:58;3.60;;;2.50;;
35550;SDS011;21655;46.056;13.616;2023-04-19T02:50:25;5.25;;;2.95;;
35550;SDS011;21655;46.056;13.616;2023-04-19T02:52:51;3.67;;;2.45;;
35550;SDS011;21655;46.056;13.616;2023-04-19T02:55:16;4.15;;;2.90;;
35550;SDS011;21655;46.056;13.616;2023-04-19T02:57:42;5.22;;;2.75;;
35550;SDS011;21655;46.056;13.616;2023-04-19T03:00:07;4.70;;;2.70;;
35550;SDS011;21655;46.056;13.616;2023-04-19T03:02:34;6.63;;;3.28;;
35550;SDS011;21655;46.056;13.616;2023-04-19T03:05:00;11.73;;;2.65;;
35550;SDS011;21655;46.056;13.616;2023-04-19T03:07:25;6.43;;;2.72;;
35550;SDS011;21655;46.056;13.616;2023-04-19T03:09:50;6.22;;;2.55;;
35550;SDS011;21655;46.056;13.616;2023-04-19T03:12:16;4.43;;;2.83;;
35550;SDS011;21655;46.056;13.616;2023-04-19T03:14:41;4.15;;;2.22;;
35550;SDS011;21655;46.056;13.616;2023-04-19T03:17:06;7.20;;;2.72;;
35550;SDS011;21655;46.056;13.616;2023-04-19T03:19:32;6.80;;;3.40;;
35550;SDS011;21655;46.056;13.616;2023-04-19T03:21:57;5.07;;;2.78;;
35550;SDS011;21655;46.056;13.616;2023-04-19T03:24:26;5.38;;;2.60;;
35550;SDS011;21655;46.056;13.616;2023-04-19T03:26:53;7.35;;;2.65;;
35550;SDS011;21655;46.056;13.616;2023-04-19T03:29:19;9.25;;;2.58;;
35550;SDS011;21655;46.056;13.616;2023-04-19T03:31:44;6.00;;;2.60;;
35550;SDS011;21655;46.056;13.616;2023-04-19T03:34:10;8.07;;;3.25;;
35550;SDS011;21655;46.056;13.616;2023-04-19T03:36:35;7.40;;;2.72;;
35550;SDS011;21655;46.056;13.616;2023-04-19T03:39:01;5.72;;;2.90;;
35550;SDS011;21655;46.056;13.616;2023-04-19T03:41:28;7.18;;;3.15;;
35550;SDS011;21655;46.056;13.616;2023-04-19T03:43:53;9.00;;;3.25;;
35550;SDS011;21655;46.056;13.616;2023-04-19T03:46:19;5.38;;;2.97;;
35550;SDS011;21655;46.056;13.616;2023-04-19T03:48:44;7.20;;;2.80;;
35550;SDS011;21655;46.056;13.616;2023-04-19T03:51:10;6.70;;;2.50;;
35550;SDS011;21655;46.056;13.616;2023-04-19T03:53:37;6.10;;;2.35;;
35550;SDS011;21655;46.056;13.616;2023-04-19T03:56:02;8.68;;;2.92;;
35550;SDS011;21655;46.056;13.616;2023-04-19T03:58:28;6.32;;;2.90;;
35550;SDS011;21655;46.056;13.616;2023-04-19T04:00:53;6.85;;;2.70;;
35550;SDS011;21655;46.056;13.616;2023-04-19T04:03:18;9.90;;;2.90;;
35550;SDS011;21655;46.056;13.616;2023-04-19T04:05:44;5.03;;;2.65;;
35550;SDS011;21655;46.056;13.616;2023-04-19T04:08:09;5.07;;;2.83;;
35550;SDS011;21655;46.056;13.616;2023-04-19T04:10:35;4.88;;;3.08;;
35550;SDS011;21655;46.056;13.616;2023-04-19T04:13:00;4.45;;;2.88;;
35550;SDS011;21655;46.056;13.616;2023-04-19T04:15:26;5.82;;;3.28;;
35550;SDS011;21655;46.056;13.616;2023-04-19T04:17:51;9.90;;;3.20;;
35550;SDS011;21655;46.056;13.616;2023-04-19T04:20:16;5.57;;;2.97;;
35550;SDS011;21655;46.056;13.616;2023-04-19T04:22:42;9.70;;;3.60;;
35550;SDS011;21655;46.056;13.616;2023-04-19T04:25:10;6.60;;;3.15;;
35550;SDS011;21655;46.056;13.616;2023-04-19T04:27:36;7.03;;;3.10;;
35550;SDS011;21655;46.056;13.616;2023-04-19T04:30:03;6.80;;;3.03;;
35550;SDS011;21655;46.056;13.616;2023-04-19T04:32:30;4.45;;;2.75;;
35550;SDS011;21655;46.056;13.616;2023-04-19T04:34:59;5.22;;;2.50;;
35550;SDS011;21655;46.056;13.616;2023-04-19T04:37:26;4.80;;;2.67;;
35550;SDS011;21655;46.056;13.616;2023-04-19T04:39:51;6.57;;;3.08;;
35550;SDS011;21655;46.056;13.616;2023-04-19T04:42:16;5.20;;;2.75;;
35550;SDS011;21655;46.056;13.616;2023-04-19T04:44:45;7.53;;;3.25;;
35550;SDS011;21655;46.056;13.616;2023-04-19T04:47:14;5.82;;;2.75;;
35550;SDS011;21655;46.056;13.616;2023-04-19T04:49:39;4.90;;;2.40;;
35550;SDS011;21655;46.056;13.616;2023-04-19T04:52:05;5.15;;;2.78;;
35550;SDS011;21655;46.056;13.616;2023-04-19T04:54:32;7.20;;;3.40;;
35550;SDS011;21655;46.056;13.616;2023-04-19T04:56:58;4.55;;;2.90;;
35550;SDS011;21655;46.056;13.616;2023-04-19T04:59:23;5.43;;;3.00;;
35550;SDS011;21655;46.056;13.616;2023-04-19T05:01:49;7.25;;;2.97;;
35550;SDS011;21655;46.056;13.616;2023-04-19T05:04:15;7.45;;;2.88;;
35550;SDS011;21655;46.056;13.616;2023-04-19T05:06:40;8.80;;;2.70;;
35550;SDS011;21655;46.056;13.616;2023-04-19T05:09:06;6.45;;;2.90;;
35550;SDS011;21655;46.056;13.616;2023-04-19T05:11:32;13.10;;;3.78;;
35550;SDS011;21655;46.056;13.616;2023-04-19T05:13:57;7.22;;;3.38;;
35550;SDS011;21655;46.056;13.616;2023-04-19T05:16:24;8.98;;;3.20;;
35550;SDS011;21655;46.056;13.616;2023-04-19T05:18:50;14.35;;;3.65;;
35550;SDS011;21655;46.056;13.616;2023-04-19T05:21:15;10.05;;;3.20;;
35550;SDS011;21655;46.056;13.616;2023-04-19T05:23:41;7.68;;;2.83;;
35550;SDS011;21655;46.056;13.616;2023-04-19T05:26:06;7.82;;;3.17;;
35550;SDS011;21655;46.056;13.616;2023-04-19T05:28:32;9.43;;;3.42;;
35550;SDS011;21655;46.056;13.616;2023-04-19T05:30:57;6.20;;;3.42;;
35550;SDS011;21655;46.056;13.616;2023-04-19T05:33:22;5.28;;;3.13;;
35550;SDS011;21655;46.056;13.616;2023-04-19T05:35:48;5.60;;;3.03;;
35550;SDS011;21655;46.056;13.616;2023-04-19T05:38:13;8.02;;;3.63;;
35550;SDS011;21655;46.056;13.616;2023-04-19T05:40:39;7.03;;;2.70;;
35550;SDS011;21655;46.056;13.616;2023-04-19T05:43:04;9.20;;;3.40;;
35550;SDS011;21655;46.056;13.616;2023-04-19T05:45:30;13.20;;;3.30;;
35550;SDS011;21655;46.056;13.616;2023-04-19T05:47:55;8.30;;;3.53;;
35550;SDS011;21655;46.056;13.616;2023-04-19T05:50:21;12.73;;;4.55;;
35550;SDS011;21655;46.056;13.616;2023-04-19T05:52:46;14.73;;;5.80;;
35550;SDS011;21655;46.056;13.616;2023-04-19T05:55:12;17.50;;;7.95;;
35550;SDS011;21655;46.056;13.616;2023-04-19T05:57:37;12.10;;;4.55;;
35550;SDS011;21655;46.056;13.616;2023-04-19T06:00:03;16.33;;;5.18;;
35550;SDS011;21655;46.056;13.616;2023-04-19T06:02:29;11.05;;;4.57;;
35550;SDS011;21655;46.056;13.616;2023-04-19T06:04:54;12.30;;;4.68;;
35550;SDS011;21655;46.056;13.616;2023-04-19T06:07:22;12.07;;;4.90;;
35550;SDS011;21655;46.056;13.616;2023-04-19T06:09:47;11.98;;;5.10;;
35550;SDS011;21655;46.056;13.616;2023-04-19T06:12:13;12.15;;;4.90;;
35550;SDS011;21655;46.056;13.616;2023-04-19T06:14:38;14.75;;;4.97;;
35550;SDS011;21655;46.056;13.616;2023-04-19T06:17:04;8.82;;;4.05;;
35550;SDS011;21655;46.056;13.616;2023-04-19T06:19:29;12.68;;;4.30;;
35550;SDS011;21655;46.056;13.616;2023-04-19T06:21:57;16.13;;;4.85;;
35550;SDS011;21655;46.056;13.616;2023-04-19T06:24:23;12.02;;;4.07;;
35550;SDS011;21655;46.056;13.616;2023-04-19T06:26:49;12.90;;;3.88;;
35550;SDS011;21655;46.056;13.616;2023-04-19T06:29:14;11.43;;;4.43;;
35550;SDS011;21655;46.056;13.616;2023-04-19T06:31:40;12.50;;;4.78;;
35550;SDS011;21655;46.056;13.616;2023-04-19T06:34:05;11.55;;;4.80;;
35550;SDS011;21655;46.056;13.616;2023-04-19T06:36:31;16.55;;;4.95;;
35550;SDS011;21655;46.056;13.616;2023-04-19T06:38:56;10.90;;;4.65;;
35550;SDS011;21655;46.056;13.616;2023-04-19T06:41:22;7.70;;;4.00;;
35550;SDS011;21655;46.056;13.616;2023-04-19T06:43:47;10.60;;;3.58;;
35550;SDS011;21655;46.056;13.616;2023-04-19T06:46:13;11.73;;;4.57;;
35550;SDS011;21655;46.056;13.616;2023-04-19T06:48:38;8.93;;;4.43;;
35550;SDS011;21655;46.056;13.616;2023-04-19T06:51:04;10.25;;;4.47;;
35550;SDS011;21655;46.056;13.616;2023-04-19T06:53:29;13.60;;;4.78;;
35550;SDS011;21655;46.056;13.616;2023-04-19T06:55:57;18.08;;;3.97;;
35550;SDS011;21655;46.056;13.616;2023-04-19T06:58:24;10.15;;;4.47;;
35550;SDS011;21655;46.056;13.616;2023-04-19T07:00:50;9.25;;;3.97;;
35550;SDS011;21655;46.056;13.616;2023-04-19T07:03:16;9.45;;;4.25;;
35550;SDS011;21655;46.056;13.616;2023-04-19T07:05:41;8.88;;;3.97;;
35550;SDS011;21655;46.056;13.616;2023-04-19T07:08:07;8.45;;;3.83;;
35550;SDS011;21655;46.056;13.616;2023-04-19T07:10:32;9.93;;;3.30;;
35550;SDS011;21655;46.056;13.616;2023-04-19T07:12:57;6.82;;;3.25;;
35550;SDS011;21655;46.056;13.616;2023-04-19T07:15:23;9.18;;;3.30;;
35550;SDS011;21655;46.056;13.616;2023-04-19T07:17:48;8.45;;;3.25;;
35550;SDS011;21655;46.056;13.616;2023-04-19T07:20:14;9.15;;;2.80;;
35550;SDS011;21655;46.056;13.616;2023-04-19T07:22:40;7.35;;;2.42;;
35550;SDS011;21655;46.056;13.616;2023-04-19T07:25:05;5.53;;;2.67;;
35550;SDS011;21655;46.056;13.616;2023-04-19T07:27:31;6.18;;;2.90;;
35550;SDS011;21655;46.056;13.616;2023-04-19T07:29:56;6.75;;;2.40;;
35550;SDS011;21655;46.056;13.616;2023-04-19T07:32:22;7.10;;;2.08;;
35550;SDS011;21655;46.056;13.616;2023-04-19T07:34:47;3.72;;;2.10;;
35550;SDS011;21655;46.056;13.616;2023-04-19T07:37:12;7.03;;;2.85;;
35550;SDS011;21655;46.056;13.616;2023-04-19T07:39:38;4.93;;;2.65;;
35550;SDS011;21655;46.056;13.616;2023-04-19T07:42:04;9.18;;;2.17;;
35550;SDS011;21655;46.056;13.616;2023-04-19T07:44:29;10.48;;;2.30;;
35550;SDS011;21655;46.056;13.616;2023-04-19T07:46:55;5.63;;;2.00;;
35550;SDS011;21655;46.056;13.616;2023-04-19T07:49:20;8.05;;;2.45;;
35550;SDS011;21655;46.056;13.616;2023-04-19T07:51:46;9.68;;;2.30;;
35550;SDS011;21655;46.056;13.616;2023-04-19T07:54:11;3.78;;;2.00;;
35550;SDS011;21655;46.056;13.616;2023-04-19T07:56:37;7.95;;;2.28;;
35550;SDS011;21655;46.056;13.616;2023-04-19T07:59:02;6.53;;;2.13;;
35550;SDS011;21655;46.056;13.616;2023-04-19T08:01:28;10.70;;;2.80;;
35550;SDS011;21655;46.056;13.616;2023-04-19T08:03:54;6.68;;;2.50;;
35550;SDS011;21655;46.056;13.616;2023-04-19T08:06:19;8.52;;;2.20;;
35550;SDS011;21655;46.056;13.616;2023-04-19T08:08:45;13.00;;;2.35;;
35550;SDS011;21655;46.056;13.616;2023-04-19T08:11:11;5.40;;;2.03;;
35550;SDS011;21655;46.056;13.616;2023-04-19T08:13:37;5.43;;;2.20;;
35550;SDS011;21655;46.056;13.616;2023-04-19T08:16:02;8.85;;;2.80;;
35550;SDS011;21655;46.056;13.616;2023-04-19T08:18:28;10.13;;;2.20;;
35550;SDS011;21655;46.056;13.616;2023-04-19T08:20:53;8.98;;;2.30;;
35550;SDS011;21655;46.056;13.616;2023-04-19T08:23:20;7.03;;;2.35;;
35550;SDS011;21655;46.056;13.616;2023-04-19T08:25:46;6.28;;;2.28;;
35550;SDS011;21655;46.056;13.616;2023-04-19T08:28:11;9.25;;;2.15;;
35550;SDS011;21655;46.056;13.616;2023-04-19T08:30:36;5.55;;;2.00;;
35550;SDS011;21655;46.056;13.616;2023-04-19T08:33:02;4.63;;;1.92;;
35550;SDS011;21655;46.056;13.616;2023-04-19T08:35:27;4.20;;;1.73;;
35550;SDS011;21655;46.056;13.616;2023-04-19T08:37:53;4.28;;;1.60;;
35550;SDS011;21655;46.056;13.616;2023-04-19T08:40:19;9.18;;;1.77;;
35550;SDS011;21655;46.056;13.616;2023-04-19T08:42:44;5.38;;;1.45;;
35550;SDS011;21655;46.056;13.616;2023-04-19T08:45:10;8.98;;;1.52;;
35550;SDS011;21655;46.056;13.616;2023-04-19T08:47:37;6.70;;;1.88;;
35550;SDS011;21655;46.056;13.616;2023-04-19T08:50:04;6.45;;;1.30;;
35550;SDS011;21655;46.056;13.616;2023-04-19T08:52:34;3.22;;;1.67;;
35550;SDS011;21655;46.056;13.616;2023-04-19T08:55:02;9.10;;;1.60;;
35550;SDS011;21655;46.056;13.616;2023-04-19T08:57:29;5.78;;;2.38;;
35550;SDS011;21655;46.056;13.616;2023-04-19T08:59:56;4.63;;;1.48;;
35550;SDS011;21655;46.056;13.616;2023-04-19T09:02:22;3.83;;;1.27;;
35550;SDS011;21655;46.056;13.616;2023-04-19T09:04:48;9.00;;;1.20;;
35550;SDS011;21655;46.056;13.616;2023-04-19T09:07:23;4.57;;;1.27;;
35550;SDS011;21655;46.056;13.616;2023-04-19T09:10:08;2.47;;;1.10;;
35550;SDS011;21655;46.056;13.616;2023-04-19T09:12:34;4.22;;;1.42;;
35550;SDS011;21655;46.056;13.616;2023-04-19T09:15:02;2.67;;;1.30;;
35550;SDS011;21655;46.056;13.616;2023-04-19T09:17:31;2.40;;;0.80;;
35550;SDS011;21655;46.056;13.616;2023-04-19T09:19:57;4.05;;;0.80;;
35550;SDS011;21655;46.056;13.616;2023-04-19T09:22:23;1.60;;;0.82;;
35550;SDS011;21655;46.056;13.616;2023-04-19T09:24:50;1.75;;;0.98;;
35550;SDS011;21655;46.056;13.616;2023-04-19T09:27:18;3.13;;;0.90;;
35550;SDS011;21655;46.056;13.616;2023-04-19T09:29:54;1.65;;;0.80;;
35550;SDS011;21655;46.056;13.616;2023-04-19T09:32:21;2.28;;;0.98;;
35550;SDS011;21655;46.056;13.616;2023-04-19T09:34:53;5.45;;;1.02;;
35550;SDS011;21655;46.056;13.616;2023-04-19T09:37:20;2.33;;;1.10;;
35550;SDS011;21655;46.056;13.616;2023-04-19T09:39:46;2.25;;;0.98;;
35550;SDS011;21655;46.056;13.616;2023-04-19T09:42:11;3.20;;;1.27;;
35550;SDS011;21655;46.056;13.616;2023-04-19T09:44:36;2.05;;;1.00;;
35550;SDS011;21655;46.056;13.616;2023-04-19T09:47:08;2.08;;;1.13;;
35550;SDS011;21655;46.056;13.616;2023-04-19T09:52:12;1.70;;;0.83;;
35550;SDS011;21655;46.056;13.616;2023-04-19T09:54:38;1.92;;;1.08;;
35550;SDS011;21655;46.056;13.616;2023-04-19T09:57:05;2.45;;;1.20;;
35550;SDS011;21655;46.056;13.616;2023-04-19T09:59:32;2.15;;;1.08;;
35550;SDS011;21655;46.056;13.616;2023-04-19T10:01:57;3.33;;;1.10;;
35550;SDS011;21655;46.056;13.616;2023-04-19T10:04:24;2.17;;;1.10;;
35550;SDS011;21655;46.056;13.616;2023-04-19T10:06:52;2.42;;;1.23;;
35550;SDS011;21655;46.056;13.616;2023-04-19T10:09:19;2.60;;;1.30;;
35550;SDS011;21655;46.056;13.616;2023-04-19T10:11:46;4.28;;;1.70;;
35550;SDS011;21655;46.056;13.616;2023-04-19T10:14:14;4.05;;;1.70;;
35550;SDS011;21655;46.056;13.616;2023-04-19T10:16:40;4.25;;;1.50;;
35550;SDS011;21655;46.056;13.616;2023-04-19T10:19:10;4.47;;;1.50;;
35550;SDS011;21655;46.056;13.616;2023-04-19T10:21:36;2.33;;;1.30;;
35550;SDS011;21655;46.056;13.616;2023-04-19T10:24:04;3.35;;;1.38;;
35550;SDS011;21655;46.056;13.616;2023-04-19T10:26:30;2.33;;;1.30;;
35550;SDS011;21655;46.056;13.616;2023-04-19T10:32:18;3.50;;;1.70;;
35550;SDS011;21655;46.056;13.616;2023-04-19T10:34:44;6.55;;;1.77;;
35550;SDS011;21655;46.056;13.616;2023-04-19T10:37:10;6.68;;;1.45;;
35550;SDS011;21655;46.056;13.616;2023-04-19T10:39:38;6.88;;;1.70;;
35550;SDS011;21655;46.056;13.616;2023-04-19T10:42:05;4.03;;;1.45;;
35550;SDS011;21655;46.056;13.616;2023-04-19T10:44:31;4.28;;;2.00;;
35550;SDS011;21655;46.056;13.616;2023-04-19T10:46:59;3.47;;;1.67;;
35550;SDS011;21655;46.056;13.616;2023-04-19T10:49:25;4.35;;;2.03;;
35550;SDS011;21655;46.056;13.616;2023-04-19T10:51:52;3.08;;;1.75;;
35550;SDS011;21655;46.056;13.616;2023-04-19T10:54:31;2.78;;;1.65;;
35550;SDS011;21655;46.056;13.616;2023-04-19T10:59:27;8.45;;;2.47;;
35550;SDS011;21655;46.056;13.616;2023-04-19T11:01:57;6.28;;;1.95;;
35550;SDS011;21655;46.056;13.616;2023-04-19T11:07:00;4.78;;;2.22;;
35550;SDS011;21655;46.056;13.616;2023-04-19T11:12:04;6.28;;;2.35;;
35550;SDS011;21655;46.056;13.616;2023-04-19T11:14:56;7.32;;;2.25;;
35550;SDS011;21655;46.056;13.616;2023-04-19T11:17:24;3.60;;;2.00;;
35550;SDS011;21655;46.056;13.616;2023-04-19T11:22:46;3.72;;;1.77;;
35550;SDS011;21655;46.056;13.616;2023-04-19T11:25:12;5.70;;;1.95;;
35550;SDS011;21655;46.056;13.616;2023-04-19T11:27:41;3.80;;;1.58;;
35550;SDS011;21655;46.056;13.616;2023-04-19T11:32:36;5.60;;;2.20;;
35550;SDS011;21655;46.056;13.616;2023-04-19T11:35:12;3.65;;;2.08;;
35550;SDS011;21655;46.056;13.616;2023-04-19T11:37:38;5.60;;;1.60;;
35550;SDS011;21655;46.056;13.616;2023-04-19T11:40:04;4.57;;;1.85;;
35550;SDS011;21655;46.056;13.616;2023-04-19T11:42:30;2.90;;;1.30;;
35550;SDS011;21655;46.056;13.616;2023-04-19T11:44:56;2.88;;;1.52;;
35550;SDS011;21655;46.056;13.616;2023-04-19T11:47:23;4.50;;;1.48;;
35550;SDS011;21655;46.056;13.616;2023-04-19T11:49:53;2.97;;;1.20;;
35550;SDS011;21655;46.056;13.616;2023-04-19T11:52:20;4.00;;;1.40;;
35550;SDS011;21655;46.056;13.616;2023-04-19T11:54:47;4.85;;;1.85;;
35550;SDS011;21655;46.056;13.616;2023-04-19T11:57:12;3.13;;;1.90;;
35550;SDS011;21655;46.056;13.616;2023-04-19T11:59:38;3.38;;;1.90;;
35550;SDS011;21655;46.056;13.616;2023-04-19T12:02:04;6.30;;;2.88;;
35550;SDS011;21655;46.056;13.616;2023-04-19T12:04:34;5.18;;;1.00;;
35550;SDS011;21655;46.056;13.616;2023-04-19T12:07:01;4.45;;;1.55;;
35550;SDS011;21655;46.056;13.616;2023-04-19T12:09:27;3.00;;;1.80;;
35550;SDS011;21655;46.056;13.616;2023-04-19T12:11:53;2.05;;;1.02;;
35550;SDS011;21655;46.056;13.616;2023-04-19T12:14:19;3.40;;;0.90;;
35550;SDS011;21655;46.056;13.616;2023-04-19T12:17:04;2.22;;;1.00;;
35550;SDS011;21655;46.056;13.616;2023-04-19T12:19:33;1.73;;;0.80;;
35550;SDS011;21655;46.056;13.616;2023-04-19T12:22:07;1.67;;;0.90;;
35550;SDS011;21655;46.056;13.616;2023-04-19T12:24:33;2.53;;;1.13;;
35550;SDS011;21655;46.056;13.616;2023-04-19T12:26:58;2.08;;;1.10;;
35550;SDS011;21655;46.056;13.616;2023-04-19T12:29:25;1.77;;;0.77;;
35550;SDS011;21655;46.056;13.616;2023-04-19T12:31:51;3.03;;;1.00;;
35550;SDS011;21655;46.056;13.616;2023-04-19T12:34:17;1.60;;;0.82;;
35550;SDS011;21655;46.056;13.616;2023-04-19T12:36:42;2.58;;;0.70;;
35550;SDS011;21655;46.056;13.616;2023-04-19T12:39:07;2.30;;;1.08;;
35550;SDS011;21655;46.056;13.616;2023-04-19T12:41:33;6.25;;;1.20;;
35550;SDS011;21655;46.056;13.616;2023-04-19T12:43:59;2.70;;;0.95;;
35550;SDS011;21655;46.056;13.616;2023-04-19T12:46:24;2.58;;;0.95;;
35550;SDS011;21655;46.056;13.616;2023-04-19T12:48:49;8.02;;;1.40;;
35550;SDS011;21655;46.056;13.616;2023-04-19T12:51:15;4.85;;;1.20;;
35550;SDS011;21655;46.056;13.616;2023-04-19T12:53:40;5.35;;;1.20;;
35550;SDS011;21655;46.056;13.616;2023-04-19T12:56:06;6.53;;;1.20;;
35550;SDS011;21655;46.056;13.616;2023-04-19T12:58:31;4.88;;;1.13;;
35550;SDS011;21655;46.056;13.616;2023-04-19T13:00:57;4.32;;;1.33;;
35550;SDS011;21655;46.056;13.616;2023-04-19T13:03:22;2.28;;;1.10;;
35550;SDS011;21655;46.056;13.616;2023-04-19T13:05:48;3.78;;;1.48;;
35550;SDS011;21655;46.056;13.616;2023-04-19T13:08:13;2.58;;;0.95;;
35550;SDS011;21655;46.056;13.616;2023-04-19T13:10:39;5.30;;;1.40;;
35550;SDS011;21655;46.056;13.616;2023-04-19T13:13:04;4.90;;;1.45;;
35550;SDS011;21655;46.056;13.616;2023-04-19T13:15:30;2.40;;;1.20;;
35550;SDS011;21655;46.056;13.616;2023-04-19T13:17:56;5.43;;;2.38;;
35550;SDS011;21655;46.056;13.616;2023-04-19T13:20:22;7.70;;;2.42;;
35550;SDS011;21655;46.056;13.616;2023-04-19T13:22:47;7.57;;;2.50;;
35550;SDS011;21655;46.056;13.616;2023-04-19T13:25:13;7.28;;;3.15;;
35550;SDS011;21655;46.056;13.616;2023-04-19T13:27:38;3.20;;;1.23;;
35550;SDS011;21655;46.056;13.616;2023-04-19T13:30:04;3.20;;;1.20;;
35550;SDS011;21655;46.056;13.616;2023-04-19T13:32:30;3.20;;;0.82;;
35550;SDS011;21655;46.056;13.616;2023-04-19T13:34:55;4.50;;;1.25;;
35550;SDS011;21655;46.056;13.616;2023-04-19T13:37:20;4.32;;;1.20;;
35550;SDS011;21655;46.056;13.616;2023-04-19T13:39:46;5.72;;;1.60;;
35550;SDS011;21655;46.056;13.616;2023-04-19T13:42:11;3.88;;;1.50;;
35550;SDS011;21655;46.056;13.616;2023-04-19T13:44:38;2.20;;;1.40;;
35550;SDS011;21655;46.056;13.616;2023-04-19T13:47:03;3.30;;;1.30;;
35550;SDS011;21655;46.056;13.616;2023-04-19T13:49:29;6.13;;;1.30;;
35550;SDS011;21655;46.056;13.616;2023-04-19T13:51:54;8.00;;;1.60;;
35550;SDS011;21655;46.056;13.616;2023-04-19T13:54:20;4.15;;;1.55;;
35550;SDS011;21655;46.056;13.616;2023-04-19T13:56:45;3.92;;;1.00;;
35550;SDS011;21655;46.056;13.616;2023-04-19T13:59:11;5.18;;;2.75;;
35550;SDS011;21655;46.056;13.616;2023-04-19T14:01:36;5.45;;;3.13;;
35550;SDS011;21655;46.056;13.616;2023-04-19T14:04:02;2.83;;;1.73;;
35550;SDS011;21655;46.056;13.616;2023-04-19T14:06:27;5.57;;;1.60;;
35550;SDS011;21655;46.056;13.616;2023-04-19T14:08:53;8.60;;;3.15;;
35550;SDS011;21655;46.056;13.616;2023-04-19T14:11:18;5.43;;;2.28;;
35550;SDS011;21655;46.056;13.616;2023-04-19T14:13:44;4.85;;;1.30;;
35550;SDS011;21655;46.056;13.616;2023-04-19T14:16:12;6.82;;;3.30;;
35550;SDS011;21655;46.056;13.616;2023-04-19T14:18:37;4.07;;;2.20;;
35550;SDS011;21655;46.056;13.616;2023-04-19T14:21:03;3.35;;;1.20;;
35550;SDS011;21655;46.056;13.616;2023-04-19T14:23:29;2.03;;;1.00;;
35550;SDS011;21655;46.056;13.616;2023-04-19T14:25:54;3.53;;;1.13;;
35550;SDS011;21655;46.056;13.616;2023-04-19T14:28:20;7.93;;;1.40;;
35550;SDS011;21655;46.056;13.616;2023-04-19T14:30:45;6.32;;;1.70;;
35550;SDS011;21655;46.056;13.616;2023-04-19T14:33:11;5.68;;;1.48;;
35550;SDS011;21655;46.056;13.616;2023-04-19T14:35:36;1.95;;;1.17;;
35550;SDS011;21655;46.056;13.616;2023-04-19T14:38:02;4.45;;;1.73;;
35550;SDS011;21655;46.056;13.616;2023-04-19T14:40:27;5.32;;;2.50;;
35550;SDS011;21655;46.056;13.616;2023-04-19T14:42:52;7.32;;;2.80;;
35550;SDS011;21655;46.056;13.616;2023-04-19T14:45:18;4.30;;;1.70;;